createdAt,value
2022-12-14T00:01:45.024Z,24.17
2022-12-14T00:04:16.504Z,23.13
2022-12-14T00:06:43.502Z,18.63
2022-12-14T00:09:10.514Z,23.10
2022-12-14T00:11:37.469Z,22.13
2022-12-14T00:14:04.735Z,21.52
2022-12-14T00:16:34.301Z,21.83
2022-12-14T00:19:02.156Z,21.15
2022-12-14T00:21:29.462Z,21.10
2022-12-14T00:23:58.239Z,20.17
2022-12-14T00:26:28.257Z,21.73
2022-12-14T00:28:56.806Z,21.70
2022-12-14T00:31:24.817Z,23.08
2022-12-14T00:33:52.532Z,20.70
2022-12-14T00:36:20.293Z,20.45
2022-12-14T00:38:47.295Z,18.90
2022-12-14T00:41:14.209Z,20.70
2022-12-14T00:43:41.366Z,20.20
2022-12-14T00:46:08.399Z,20.58
2022-12-14T00:48:36.011Z,20.60
2022-12-14T00:51:03.077Z,19.63
2022-12-14T00:53:29.979Z,22.90
2022-12-14T00:55:56.972Z,23.83
2022-12-14T00:58:25.360Z,22.83
2022-12-14T01:01:07.235Z,19.85
2022-12-14T01:03:34.726Z,19.42
2022-12-14T01:06:02.733Z,18.98
2022-12-14T01:08:35.988Z,20.52
2022-12-14T01:11:07.484Z,21.70
2022-12-14T01:13:35.570Z,20.13
2022-12-14T01:16:08.251Z,20.20
2022-12-14T01:18:39.760Z,20.23
2022-12-14T01:21:22.060Z,19.85
2022-12-14T01:23:52.567Z,21.58
2022-12-14T01:26:20.354Z,19.42
2022-12-14T01:28:48.164Z,20.60
2022-12-14T01:31:18.155Z,20.17
2022-12-14T01:33:45.678Z,17.15
2022-12-14T01:36:16.082Z,21.85
2022-12-14T01:38:43.693Z,19.88
2022-12-14T01:41:25.294Z,16.98
2022-12-14T01:44:23.410Z,17.90
2022-12-14T01:46:50.262Z,16.42
2022-12-14T01:49:28.503Z,20.50
2022-12-14T01:52:14.506Z,18.38
2022-12-14T01:54:49.003Z,17.17
2022-12-14T01:57:19.035Z,20.02
2022-12-14T01:59:47.770Z,20.67
2022-12-14T02:02:17.364Z,19.42
2022-12-14T02:04:50.213Z,19.35
2022-12-14T02:07:17.696Z,22.15
2022-12-14T02:09:46.520Z,21.98
2022-12-14T02:12:34.008Z,20.85
2022-12-14T02:15:02.455Z,18.27
2022-12-14T02:17:29.748Z,22.38
2022-12-14T02:19:58.031Z,20.80
2022-12-14T02:23:13.270Z,24.73
2022-12-14T02:26:07.911Z,21.10
2022-12-14T02:29:25.020Z,22.17
2022-12-14T02:32:03.864Z,24.02
2022-12-14T02:34:48.931Z,23.88
2022-12-14T02:37:29.906Z,23.50
2022-12-14T02:39:59.639Z,25.13
2022-12-14T02:42:41.368Z,22.67
2022-12-14T02:45:32.057Z,26.10
2022-12-14T02:48:06.606Z,20.45
2022-12-14T02:50:52.180Z,23.45
2022-12-14T02:53:34.826Z,22.75
2022-12-14T02:56:08.910Z,24.05
2022-12-14T02:58:56.692Z,23.05
2022-12-14T03:01:27.662Z,21.65
2022-12-14T03:03:55.713Z,21.20
2022-12-14T03:06:27.411Z,25.00
2022-12-14T03:08:57.184Z,23.75
2022-12-14T03:11:31.583Z,25.98
2022-12-14T03:14:29.781Z,21.60
2022-12-14T03:17:03.704Z,24.42
2022-12-14T03:19:46.415Z,23.45
2022-12-14T03:22:22.633Z,25.30
2022-12-14T03:24:55.344Z,23.55
2022-12-14T03:27:30.891Z,24.15
2022-12-14T03:30:05.629Z,25.50
2022-12-14T03:32:35.567Z,23.17
2022-12-14T03:35:10.033Z,24.20
2022-12-14T03:37:58.220Z,22.63
2022-12-14T03:40:34.366Z,24.55
2022-12-14T03:43:13.501Z,24.83
2022-12-14T03:45:52.505Z,23.50
2022-12-14T03:48:35.111Z,19.05
2022-12-14T03:51:43.704Z,24.15
2022-12-14T03:54:24.682Z,21.98
2022-12-14T03:57:06.276Z,21.75
2022-12-14T04:00:00.695Z,23.27
2022-12-14T04:02:59.625Z,21.20
2022-12-14T04:05:50.716Z,21.70
2022-12-14T04:08:29.524Z,22.25
2022-12-14T04:11:17.187Z,22.75
2022-12-14T04:14:10.108Z,23.10
2022-12-14T04:16:59.755Z,24.38
2022-12-14T04:19:45.000Z,22.60
2022-12-14T04:22:19.599Z,25.02
2022-12-14T04:25:15.147Z,23.75
2022-12-14T04:27:49.475Z,22.55
2022-12-14T04:30:16.766Z,21.92
2022-12-14T04:32:56.279Z,22.70
2022-12-14T04:35:35.683Z,23.98
2022-12-14T04:38:14.599Z,25.08
2022-12-14T04:40:53.472Z,24.35
2022-12-14T04:43:25.016Z,22.55
2022-12-14T04:46:14.005Z,22.08
2022-12-14T04:48:55.455Z,20.73
2022-12-14T04:51:45.132Z,22.60
2022-12-14T04:54:34.039Z,21.50
2022-12-14T04:57:26.021Z,23.92
2022-12-14T04:59:53.089Z,25.95
2022-12-14T05:02:31.946Z,27.73
2022-12-14T05:05:15.018Z,23.33
2022-12-14T05:07:48.809Z,24.88
2022-12-14T05:10:27.722Z,21.27
2022-12-14T05:13:02.267Z,22.55
2022-12-14T05:15:35.924Z,26.48
2022-12-14T05:18:05.088Z,21.95
2022-12-14T05:20:32.232Z,20.50
2022-12-14T05:22:59.002Z,24.27
2022-12-14T05:25:25.927Z,24.23
2022-12-14T05:27:52.817Z,23.73
2022-12-14T05:30:19.768Z,21.65
2022-12-14T05:32:46.695Z,26.92
2022-12-14T05:35:14.122Z,23.05
2022-12-14T05:37:41.820Z,23.52
2022-12-14T05:40:09.911Z,24.23
2022-12-14T05:42:42.607Z,22.70
2022-12-14T05:45:15.271Z,20.98
2022-12-14T05:47:42.124Z,21.23
2022-12-14T05:50:09.339Z,24.30
2022-12-14T05:52:36.061Z,22.50
2022-12-14T05:55:04.751Z,24.65
2022-12-14T05:57:32.232Z,21.10
2022-12-14T05:59:59.107Z,22.27
2022-12-14T06:02:26.058Z,27.35
2022-12-14T06:04:53.003Z,22.23
2022-12-14T06:07:23.070Z,25.15
2022-12-14T06:09:54.171Z,26.67
2022-12-14T06:12:21.108Z,26.48
2022-12-14T06:14:48.006Z,23.63
2022-12-14T06:17:14.954Z,24.80
2022-12-14T06:19:42.513Z,31.95
2022-12-14T06:22:16.701Z,25.67
2022-12-14T06:24:43.454Z,23.13
2022-12-14T06:27:10.339Z,23.05
2022-12-14T06:29:37.177Z,23.83
2022-12-14T06:32:04.167Z,27.52
2022-12-14T06:34:35.265Z,22.55
2022-12-14T06:37:06.229Z,25.73
2022-12-14T06:39:33.258Z,23.73
2022-12-14T06:42:00.169Z,26.42
2022-12-14T06:44:27.364Z,26.33
2022-12-14T06:46:54.300Z,24.20
2022-12-14T06:49:22.038Z,25.77
2022-12-14T06:51:49.270Z,25.13
2022-12-14T06:54:17.588Z,24.65
2022-12-14T06:56:46.762Z,31.92
2022-12-14T06:59:16.857Z,29.52
2022-12-14T07:01:44.217Z,29.90
2022-12-14T07:04:11.162Z,25.50
2022-12-14T07:06:40.915Z,25.35
2022-12-14T07:09:11.709Z,28.55
2022-12-14T07:11:38.882Z,29.48
2022-12-14T07:14:07.556Z,25.52
2022-12-14T07:16:37.131Z,24.27
2022-12-14T07:19:04.899Z,27.83
2022-12-14T07:21:33.307Z,25.75
2022-12-14T07:24:01.245Z,32.75
2022-12-14T07:26:28.407Z,22.00
2022-12-14T07:28:57.939Z,24.35
2022-12-14T07:31:27.344Z,28.25
2022-12-14T07:33:59.191Z,23.55
2022-12-14T07:36:28.120Z,20.30
2022-12-14T07:38:55.792Z,20.80
2022-12-14T07:41:30.364Z,23.60
2022-12-14T07:43:59.352Z,26.98
2022-12-14T07:46:28.210Z,21.70
2022-12-14T07:48:57.511Z,31.77
2022-12-14T07:51:26.871Z,20.43
2022-12-14T07:53:54.512Z,20.55
2022-12-14T07:56:27.909Z,24.02
2022-12-14T07:58:56.405Z,19.05
2022-12-14T08:01:29.893Z,21.52
2022-12-14T08:04:12.048Z,20.17
2022-12-14T08:06:40.242Z,20.15
2022-12-14T08:09:09.824Z,22.83
2022-12-14T08:11:36.634Z,21.83
2022-12-14T08:14:06.491Z,19.05
2022-12-14T08:16:33.671Z,20.47
2022-12-14T08:19:00.916Z,24.65
2022-12-14T08:21:28.715Z,20.50
2022-12-14T08:23:57.153Z,24.60
2022-12-14T08:26:30.047Z,23.63
2022-12-14T08:29:00.347Z,18.92
2022-12-14T08:31:28.155Z,21.45
2022-12-14T08:33:55.570Z,22.50
2022-12-14T08:36:28.793Z,19.92
2022-12-14T08:38:57.988Z,22.00
2022-12-14T08:41:25.973Z,19.85
2022-12-14T08:43:57.889Z,22.48
2022-12-14T08:46:25.943Z,20.77
2022-12-14T08:48:55.144Z,20.63
2022-12-14T08:51:23.394Z,23.08
2022-12-14T08:53:50.402Z,18.98
2022-12-14T08:56:20.437Z,17.17
2022-12-14T08:58:47.483Z,19.10
2022-12-14T09:01:17.573Z,20.98
2022-12-14T09:03:45.823Z,20.02
2022-12-14T09:06:15.215Z,16.95
2022-12-14T09:08:42.633Z,19.67
2022-12-14T09:11:15.394Z,18.57
2022-12-14T09:13:43.394Z,18.67
2022-12-14T09:16:21.149Z,24.23
2022-12-14T09:18:48.936Z,18.05
2022-12-14T09:21:16.380Z,20.17
2022-12-14T09:23:43.634Z,27.13
2022-12-14T09:26:36.501Z,17.60
2022-12-14T09:29:03.417Z,18.98
2022-12-14T09:31:30.299Z,18.95
2022-12-14T09:33:57.219Z,19.15
2022-12-14T09:36:26.425Z,19.87
2022-12-14T09:38:57.755Z,19.63
2022-12-14T09:41:24.796Z,20.52
2022-12-14T09:44:17.952Z,19.60
2022-12-14T09:47:00.633Z,21.23
2022-12-14T09:49:48.863Z,18.60
2022-12-14T09:52:20.920Z,22.85
2022-12-14T09:54:50.084Z,24.83
2022-12-14T09:57:53.450Z,17.83
2022-12-14T10:00:20.870Z,19.40
2022-12-14T10:03:00.314Z,18.40
2022-12-14T10:05:42.313Z,17.50
2022-12-14T10:08:22.571Z,18.40
2022-12-14T10:11:03.220Z,17.60
2022-12-14T10:13:51.101Z,21.02
2022-12-14T10:16:36.649Z,19.17
2022-12-14T10:19:18.815Z,20.48
2022-12-14T10:21:54.497Z,20.67
2022-12-14T10:24:41.914Z,21.25
2022-12-14T10:27:11.261Z,23.05
2022-12-14T10:29:43.282Z,18.67
2022-12-14T10:32:38.322Z,18.58
2022-12-14T10:35:33.992Z,21.30
2022-12-14T10:38:31.307Z,23.55
2022-12-14T10:41:04.378Z,20.67
2022-12-14T10:43:53.218Z,19.60
2022-12-14T10:46:28.776Z,19.75
2022-12-14T10:49:19.339Z,19.15
2022-12-14T10:51:55.433Z,18.83
2022-12-14T10:54:30.805Z,19.33
2022-12-14T10:56:58.759Z,21.33
2022-12-14T10:59:31.193Z,21.77
2022-12-14T11:02:25.572Z,26.65
2022-12-14T11:04:54.781Z,20.50
2022-12-14T11:07:25.529Z,17.58
2022-12-14T11:09:53.056Z,20.23
2022-12-14T11:12:28.610Z,18.58
2022-12-14T11:14:57.195Z,18.92
2022-12-14T11:17:37.289Z,20.02
2022-12-14T11:20:22.518Z,19.52
2022-12-14T11:22:55.130Z,24.10
2022-12-14T11:25:38.043Z,18.50
2022-12-14T11:28:23.258Z,14.77
2022-12-14T11:31:31.599Z,17.67
2022-12-14T11:33:59.964Z,17.55
2022-12-14T11:36:42.588Z,17.30
2022-12-14T11:39:14.925Z,18.02
2022-12-14T11:41:44.803Z,27.10
2022-12-14T11:44:25.039Z,18.42
2022-12-14T11:46:58.150Z,17.10
2022-12-14T11:49:40.390Z,17.13
2022-12-14T11:52:13.862Z,14.95
2022-12-14T11:54:42.966Z,15.10
2022-12-14T11:57:32.104Z,14.75
2022-12-14T12:00:21.589Z,14.23
2022-12-14T12:02:57.105Z,15.53
2022-12-14T12:05:24.108Z,18.70
2022-12-14T12:07:50.866Z,16.88
2022-12-14T12:10:33.784Z,15.95
2022-12-14T12:13:02.690Z,17.27
2022-12-14T12:15:41.775Z,15.27
2022-12-14T12:18:22.003Z,14.82
2022-12-14T12:20:58.061Z,16.80
2022-12-14T12:23:50.745Z,16.33
2022-12-14T12:26:29.243Z,17.10
2022-12-14T12:29:07.583Z,14.90
2022-12-14T12:32:00.480Z,16.23
2022-12-14T12:34:47.992Z,16.95
2022-12-14T12:37:26.810Z,16.40
2022-12-14T12:40:02.223Z,16.73
2022-12-14T12:42:49.389Z,14.80
2022-12-14T12:45:24.687Z,15.18
2022-12-14T12:48:01.019Z,11.43
2022-12-14T12:50:36.844Z,12.02
2022-12-14T12:53:07.439Z,11.95
2022-12-14T12:55:43.094Z,13.13
2022-12-14T12:58:23.171Z,13.43
2022-12-14T13:00:54.670Z,15.23
2022-12-14T13:03:38.813Z,15.75
2022-12-14T13:06:30.717Z,15.55
2022-12-14T13:09:01.820Z,16.30
2022-12-14T13:11:36.664Z,15.75
2022-12-14T13:14:20.247Z,15.32
2022-12-14T13:16:49.744Z,14.40
2022-12-14T13:19:49.833Z,13.57
2022-12-14T13:22:25.009Z,14.83
2022-12-14T13:24:58.661Z,12.73
2022-12-14T13:28:04.275Z,12.55
2022-12-14T13:31:18.073Z,14.27
2022-12-14T13:34:03.359Z,15.25
2022-12-14T13:37:14.785Z,12.57
2022-12-14T13:40:03.943Z,13.00
2022-12-14T13:42:42.945Z,12.00
2022-12-14T13:45:21.823Z,13.65
2022-12-14T13:47:54.149Z,12.38
2022-12-14T13:50:36.223Z,12.97
2022-12-14T13:53:27.703Z,12.38
2022-12-14T13:55:57.747Z,13.50
2022-12-14T13:58:40.040Z,12.93
2022-12-14T14:01:15.586Z,14.68
2022-12-14T14:03:43.922Z,14.10
2022-12-14T14:06:19.933Z,13.70
2022-12-14T14:08:50.118Z,13.55
2022-12-14T14:11:38.969Z,13.68
2022-12-14T14:14:30.766Z,13.13
2022-12-14T14:17:06.490Z,13.23
2022-12-14T14:19:39.845Z,18.20
2022-12-14T14:22:26.020Z,16.02
2022-12-14T14:25:00.828Z,15.75
2022-12-14T14:27:41.925Z,14.32
2022-12-14T14:30:37.177Z,15.60
2022-12-14T14:33:45.540Z,17.73
2022-12-14T14:36:36.068Z,19.33
2022-12-14T14:39:24.386Z,17.58
2022-12-14T14:41:54.454Z,16.33
2022-12-14T14:44:43.669Z,17.43
2022-12-14T14:47:38.616Z,18.15
2022-12-14T14:50:19.022Z,17.65
2022-12-14T14:53:00.502Z,20.02
2022-12-14T14:55:52.782Z,20.10
2022-12-14T14:58:26.349Z,17.33
2022-12-14T15:01:25.014Z,17.92
2022-12-14T15:04:18.480Z,19.17
2022-12-14T15:06:54.208Z,18.90
2022-12-14T15:09:30.924Z,19.05
2022-12-14T15:12:04.313Z,21.53
2022-12-14T15:14:46.721Z,20.55
2022-12-14T15:17:21.554Z,21.88
2022-12-14T15:19:53.735Z,17.70
2022-12-14T15:22:23.278Z,19.65
2022-12-14T15:24:56.416Z,23.67
2022-12-14T15:27:36.318Z,34.75
2022-12-14T15:30:24.822Z,24.65
2022-12-14T15:33:01.482Z,40.25
2022-12-14T15:35:38.173Z,42.92
2022-12-14T15:38:07.699Z,28.07
2022-12-14T15:40:35.457Z,25.10
2022-12-14T15:43:20.155Z,26.00
2022-12-14T15:45:50.682Z,24.63
2022-12-14T15:48:27.806Z,26.05
2022-12-14T15:50:58.784Z,24.17
2022-12-14T15:53:40.930Z,27.67
2022-12-14T15:56:29.018Z,22.98
2022-12-14T15:59:06.918Z,23.10
2022-12-14T16:01:53.259Z,26.02
2022-12-14T16:04:24.363Z,21.37
2022-12-14T16:07:07.821Z,24.10
2022-12-14T16:09:40.811Z,25.67
2022-12-14T16:12:24.580Z,29.50
2022-12-14T16:14:58.833Z,26.55
2022-12-14T16:17:35.289Z,28.07
2022-12-14T16:20:23.573Z,29.10
2022-12-14T16:23:05.226Z,26.88
2022-12-14T16:25:35.085Z,28.33
2022-12-14T16:28:25.762Z,25.23
2022-12-14T16:31:01.743Z,27.90
2022-12-14T16:33:30.660Z,26.77
2022-12-14T16:36:24.464Z,25.67
2022-12-14T16:39:01.489Z,26.65
2022-12-14T16:41:36.383Z,23.77
2022-12-14T16:44:06.428Z,24.40
2022-12-14T16:46:33.766Z,24.60
2022-12-14T16:49:27.912Z,25.83
2022-12-14T16:52:08.737Z,27.80
2022-12-14T16:54:38.179Z,28.58
2022-12-14T16:57:20.355Z,31.30
2022-12-14T16:59:56.101Z,27.15
2022-12-14T17:02:45.226Z,33.88
2022-12-14T17:05:16.266Z,30.30
2022-12-14T17:07:43.038Z,28.40
2022-12-14T17:10:23.081Z,33.97
2022-12-14T17:12:50.421Z,32.95
2022-12-14T17:15:19.988Z,32.70
2022-12-14T17:17:49.319Z,36.58
2022-12-14T17:20:27.675Z,31.98
2022-12-14T17:23:02.148Z,30.53
2022-12-14T17:25:31.775Z,27.45
2022-12-14T17:28:01.344Z,29.67
2022-12-14T17:30:28.719Z,53.80
2022-12-14T17:32:56.013Z,32.85
2022-12-14T17:35:32.084Z,35.53
2022-12-14T17:37:59.617Z,35.40
2022-12-14T17:40:31.492Z,30.63
2022-12-14T17:42:58.777Z,33.10
2022-12-14T17:45:28.911Z,30.65
2022-12-14T17:47:56.231Z,29.70
2022-12-14T17:50:23.697Z,30.77
2022-12-14T17:52:51.687Z,36.38
2022-12-14T17:55:21.441Z,38.08
2022-12-14T17:57:50.161Z,51.13
2022-12-14T18:00:46.879Z,44.97
2022-12-14T18:03:15.709Z,53.08
2022-12-14T18:05:48.611Z,49.80
2022-12-14T18:08:26.500Z,48.17
2022-12-14T18:11:02.497Z,43.97
2022-12-14T18:13:31.593Z,44.80
2022-12-14T18:16:00.527Z,36.17
2022-12-14T18:18:29.441Z,41.67
2022-12-14T18:21:02.154Z,42.67
2022-12-14T18:23:30.378Z,39.20
2022-12-14T18:25:59.698Z,27.93
2022-12-14T18:28:26.711Z,33.80
2022-12-14T18:30:56.797Z,34.60
2022-12-14T18:33:25.752Z,47.53
2022-12-14T18:35:53.939Z,41.13
2022-12-14T18:38:21.252Z,38.40
2022-12-14T18:40:50.607Z,36.25
2022-12-14T18:43:23.624Z,36.88
2022-12-14T18:45:55.052Z,32.72
2022-12-14T18:48:23.062Z,33.78
2022-12-14T18:50:51.833Z,32.87
2022-12-14T18:53:20.894Z,35.85
2022-12-14T18:55:48.852Z,32.65
2022-12-14T18:58:24.906Z,42.53
2022-12-14T19:00:55.125Z,29.45
2022-12-14T19:03:23.001Z,27.87
2022-12-14T19:05:50.420Z,29.95
2022-12-14T19:08:17.423Z,31.88
2022-12-14T19:10:48.201Z,29.42
2022-12-14T19:13:23.421Z,28.30
2022-12-14T19:15:52.324Z,31.63
2022-12-14T19:18:19.450Z,25.00
2022-12-14T19:20:46.347Z,41.28
2022-12-14T19:23:18.161Z,33.78
2022-12-14T19:25:45.495Z,31.88
2022-12-14T19:28:32.360Z,26.93
2022-12-14T19:31:00.202Z,29.70
2022-12-14T19:33:27.810Z,20.67
2022-12-14T19:35:55.140Z,20.83
2022-12-14T19:38:22.124Z,25.45
2022-12-14T19:41:07.660Z,22.03
2022-12-14T19:43:35.406Z,23.20
2022-12-14T19:46:13.585Z,25.02
2022-12-14T19:48:40.532Z,26.42
2022-12-14T19:51:10.437Z,27.30
2022-12-14T19:53:38.930Z,27.27
2022-12-14T19:56:06.445Z,24.13
2022-12-14T19:58:33.379Z,24.73
2022-12-14T20:01:00.290Z,23.00
2022-12-14T20:03:27.453Z,21.55
2022-12-14T20:05:58.405Z,24.47
2022-12-14T20:08:26.583Z,22.98
2022-12-14T20:10:53.795Z,24.02
2022-12-14T20:13:23.042Z,30.67
2022-12-14T20:15:51.570Z,24.75
2022-12-14T20:18:19.459Z,25.67
2022-12-14T20:20:49.570Z,24.88
2022-12-14T20:23:21.602Z,21.90
2022-12-14T20:25:49.029Z,17.88
2022-12-14T20:28:16.098Z,25.85
2022-12-14T20:30:44.866Z,22.47
2022-12-14T20:33:12.144Z,24.10
2022-12-14T20:35:40.443Z,22.98
2022-12-14T20:38:07.406Z,24.20
2022-12-14T20:40:38.468Z,23.50
2022-12-14T20:43:07.091Z,21.20
2022-12-14T20:45:39.142Z,22.13
2022-12-14T20:48:06.927Z,25.42
2022-12-14T20:50:35.623Z,26.42
2022-12-14T20:53:02.412Z,25.38
2022-12-14T20:55:29.232Z,19.83
2022-12-14T20:57:56.282Z,24.23
2022-12-14T21:00:23.572Z,24.80
2022-12-14T21:02:50.469Z,25.63
2022-12-14T21:05:17.556Z,23.15
2022-12-14T21:07:44.505Z,27.73
2022-12-14T21:10:11.320Z,25.65
2022-12-14T21:12:38.299Z,24.08
2022-12-14T21:15:05.801Z,22.60
2022-12-14T21:17:34.005Z,27.88
2022-12-14T21:20:01.147Z,23.37
2022-12-14T21:22:30.463Z,29.60
2022-12-14T21:25:03.592Z,24.75
2022-12-14T21:27:33.817Z,24.13
2022-12-14T21:30:00.859Z,29.17
2022-12-14T21:32:28.297Z,25.87
2022-12-14T21:34:55.284Z,24.75
2022-12-14T21:37:22.210Z,25.85
2022-12-14T21:39:54.866Z,26.73
2022-12-14T21:42:26.078Z,25.17
2022-12-14T21:44:54.390Z,26.13
2022-12-14T21:47:26.909Z,22.42
2022-12-14T21:49:54.249Z,24.70
2022-12-14T21:52:24.293Z,24.90
2022-12-14T21:54:51.454Z,21.23
2022-12-14T21:57:39.760Z,26.50
2022-12-14T22:00:08.361Z,26.20
2022-12-14T22:02:41.741Z,23.67
2022-12-14T22:05:09.769Z,27.10
2022-12-14T22:07:36.654Z,28.38
2022-12-14T22:10:04.554Z,25.63
2022-12-14T22:12:31.700Z,24.83
2022-12-14T22:14:58.563Z,28.85
2022-12-14T22:17:25.593Z,24.98
2022-12-14T22:19:54.490Z,26.70
2022-12-14T22:22:21.267Z,20.17
2022-12-14T22:24:49.441Z,23.23
2022-12-14T22:27:16.622Z,27.83
2022-12-14T22:29:43.433Z,30.00
2022-12-14T22:32:12.324Z,25.40
2022-12-14T22:34:39.633Z,26.57
2022-12-14T22:37:06.467Z,29.02
2022-12-14T22:39:33.315Z,30.88
2022-12-14T22:42:00.315Z,25.65
2022-12-14T22:44:27.187Z,26.60
2022-12-14T22:46:54.017Z,24.97
2022-12-14T22:49:21.004Z,26.00
2022-12-14T22:51:55.093Z,35.97
2022-12-14T22:54:27.258Z,27.88
2022-12-14T22:56:58.464Z,29.90
2022-12-14T22:59:43.466Z,26.83
2022-12-14T23:02:10.483Z,31.88
2022-12-14T23:04:38.154Z,30.33
2022-12-14T23:07:05.809Z,25.95
2022-12-14T23:09:51.240Z,19.63
2022-12-14T23:12:36.916Z,22.97
2022-12-14T23:15:22.994Z,25.75
2022-12-14T23:18:08.644Z,23.50
2022-12-14T23:20:57.342Z,21.30
2022-12-14T23:23:42.913Z,25.48
2022-12-14T23:26:28.264Z,23.77
2022-12-14T23:29:13.694Z,24.88
2022-12-14T23:31:59.115Z,26.05
2022-12-14T23:34:44.292Z,23.58
2022-12-14T23:37:33.352Z,24.65
2022-12-14T23:40:18.733Z,24.13
2022-12-14T23:43:04.306Z,26.15
2022-12-14T23:45:49.801Z,25.90
2022-12-14T23:48:35.393Z,25.75
2022-12-14T23:51:21.081Z,28.52
2022-12-14T23:54:06.580Z,28.70
2022-12-14T23:56:52.469Z,31.52
2022-12-14T23:59:37.984Z,28.50
